createdAt,value
2019-06-27T00:00:33.889Z,102308.19
2019-06-27T00:03:04.470Z,102320.00
2019-06-27T00:05:34.804Z,102322.00
2019-06-27T00:08:06.457Z,102319.78
2019-06-27T00:10:36.613Z,102323.02
2019-06-27T00:13:06.864Z,102314.62
2019-06-27T00:15:37.023Z,102318.16
2019-06-27T00:18:07.169Z,102323.66
2019-06-27T00:20:37.300Z,102314.69
2019-06-27T00:23:08.647Z,102318.37
2019-06-27T00:25:38.750Z,102319.02
2019-06-27T00:28:08.911Z,102324.31
2019-06-27T00:30:39.008Z,102320.05
2019-06-27T00:33:09.161Z,102322.23
2019-06-27T00:35:39.271Z,102314.41
2019-06-27T00:38:09.492Z,102319.27
2019-06-27T00:40:39.660Z,102312.48
2019-06-27T00:43:09.761Z,102312.30
2019-06-27T00:45:40.047Z,102317.10
2019-06-27T00:48:10.172Z,102325.77
2019-06-27T00:50:40.304Z,102332.31
2019-06-27T00:53:11.562Z,102321.63
2019-06-27T00:55:41.813Z,102325.12
2019-06-27T00:58:12.076Z,102324.73
2019-06-27T01:00:42.686Z,102326.38
2019-06-27T01:03:12.832Z,102324.68
2019-06-27T01:05:43.084Z,102328.16
2019-06-27T01:08:13.229Z,102319.31
2019-06-27T01:10:43.596Z,102317.80
2019-06-27T01:13:13.708Z,102312.95
2019-06-27T01:15:44.983Z,102318.27
2019-06-27T01:18:15.395Z,102325.33
2019-06-27T01:20:45.505Z,102324.66
2019-06-27T01:23:15.642Z,102319.12
2019-06-27T01:25:47.631Z,102320.33
2019-06-27T01:28:17.938Z,102326.84
2019-06-27T01:30:48.133Z,102326.09
2019-06-27T01:33:18.430Z,102325.72
2019-06-27T01:35:48.670Z,102329.30
2019-06-27T01:38:18.819Z,102331.25
2019-06-27T01:40:48.926Z,102327.80
2019-06-27T01:43:19.091Z,102328.15
2019-06-27T01:45:55.248Z,102329.95
2019-06-27T01:48:25.347Z,102330.88
2019-06-27T01:50:56.700Z,102325.88
2019-06-27T01:53:26.827Z,102328.91
2019-06-27T01:55:56.968Z,102332.95
2019-06-27T01:58:27.117Z,102329.19
2019-06-27T02:00:57.320Z,102336.02
2019-06-27T02:03:27.518Z,102328.49
2019-06-27T02:05:57.736Z,102338.75
2019-06-27T02:08:27.979Z,102333.14
2019-06-27T02:10:58.112Z,102346.09
2019-06-27T02:13:28.308Z,102341.20
2019-06-27T02:15:59.687Z,102344.39
2019-06-27T02:18:29.799Z,102344.02
2019-06-27T02:21:00.125Z,102343.55
2019-06-27T02:23:30.233Z,102346.56
2019-06-27T02:26:00.438Z,102346.96
2019-06-27T02:28:30.561Z,102345.66
2019-06-27T02:31:00.667Z,102339.94
2019-06-27T02:33:32.514Z,102352.08
2019-06-27T02:36:03.363Z,102352.47
2019-06-27T02:38:33.584Z,102349.33
2019-06-27T02:41:05.198Z,102357.14
2019-06-27T02:43:35.321Z,102365.31
2019-06-27T02:46:05.466Z,102357.21
2019-06-27T02:48:35.586Z,102366.17
2019-06-27T02:51:05.964Z,102363.66
2019-06-27T02:53:36.076Z,102368.63
2019-06-27T02:56:06.298Z,102366.65
2019-06-27T02:58:36.478Z,102364.56
2019-06-27T03:01:06.680Z,102364.34
2019-06-27T03:03:36.842Z,102369.51
2019-06-27T03:06:07.150Z,102363.50
2019-06-27T03:08:38.761Z,102374.93
2019-06-27T03:11:08.990Z,102366.44
2019-06-27T03:13:39.204Z,102366.13
2019-06-27T03:16:09.553Z,102362.87
2019-06-27T03:18:40.677Z,102375.17
2019-06-27T03:21:10.784Z,102366.49
2019-06-27T03:23:40.925Z,102365.28
2019-06-27T03:26:11.183Z,102372.52
2019-06-27T03:28:51.997Z,102371.06
2019-06-27T03:31:13.135Z,102376.45
2019-06-27T03:33:43.263Z,102380.60
2019-06-27T03:36:13.370Z,102384.05
2019-06-27T03:38:43.518Z,102380.62
2019-06-27T03:41:13.668Z,102376.36
2019-06-27T03:43:43.860Z,102380.77
2019-06-27T03:46:14.016Z,102379.92
2019-06-27T03:48:45.606Z,102388.98
2019-06-27T03:51:15.835Z,102388.98
2019-06-27T03:53:45.993Z,102386.73
2019-06-27T03:56:16.125Z,102402.38
2019-06-27T03:58:46.346Z,102394.03
2019-06-27T04:01:16.490Z,102396.77
2019-06-27T04:03:46.721Z,102392.17
2019-06-27T04:06:16.830Z,102394.41
2019-06-27T04:08:46.969Z,102394.58
2019-06-27T04:11:17.196Z,102394.33
2019-06-27T04:13:47.335Z,102396.73
2019-06-27T04:16:17.426Z,102391.06
2019-06-27T04:18:48.017Z,102397.77
2019-06-27T04:21:18.974Z,102393.84
2019-06-27T04:23:50.176Z,102396.83
2019-06-27T04:26:20.412Z,102398.14
2019-06-27T04:28:50.577Z,102393.17
2019-06-27T04:31:20.762Z,102398.06
2019-06-27T04:33:51.039Z,102396.16
2019-06-27T04:36:23.098Z,102396.85
2019-06-27T04:38:53.259Z,102403.01
2019-06-27T04:41:23.357Z,102400.71
2019-06-27T04:43:53.502Z,102403.48
2019-06-27T04:46:23.660Z,102401.46
2019-06-27T04:48:53.885Z,102400.11
2019-06-27T04:51:24.042Z,102402.98
2019-06-27T04:53:54.226Z,102396.74
2019-06-27T04:56:24.713Z,102403.45
2019-06-27T04:58:54.826Z,102398.75
2019-06-27T05:01:25.070Z,102407.11
2019-06-27T05:03:55.197Z,102406.33
2019-06-27T05:06:25.330Z,102415.71
2019-06-27T05:08:55.488Z,102413.37
2019-06-27T05:11:26.705Z,102410.15
2019-06-27T05:13:56.797Z,102410.28
2019-06-27T05:16:26.965Z,102415.45
2019-06-27T05:18:57.163Z,102411.73
2019-06-27T05:21:27.290Z,102419.11
2019-06-27T05:23:57.492Z,102419.27
2019-06-27T05:26:27.761Z,102417.43
2019-06-27T05:28:57.934Z,102417.33
2019-06-27T05:31:29.163Z,102418.41
2019-06-27T05:33:59.303Z,102418.50
2019-06-27T05:36:29.525Z,102429.55
2019-06-27T05:38:59.809Z,102427.83
2019-06-27T05:41:29.932Z,102434.01
2019-06-27T05:44:00.158Z,102431.51
2019-06-27T05:46:30.249Z,102434.82
2019-06-27T05:49:00.597Z,102436.06
2019-06-27T05:51:30.739Z,102437.31
2019-06-27T05:54:02.752Z,102437.94
2019-06-27T05:56:32.854Z,102429.94
2019-06-27T05:59:04.564Z,102432.35
2019-06-27T06:01:34.742Z,102432.83
2019-06-27T06:04:04.852Z,102432.00
2019-06-27T06:06:35.001Z,102429.27
2019-06-27T06:09:05.990Z,102429.38
2019-06-27T06:11:36.198Z,102429.28
2019-06-27T06:14:06.345Z,102431.50
2019-06-27T06:16:36.503Z,102429.08
2019-06-27T06:19:06.617Z,102431.05
2019-06-27T06:21:36.928Z,102427.39
2019-06-27T06:24:08.190Z,102424.41
2019-06-27T06:26:38.477Z,102425.88
2019-06-27T06:29:08.651Z,102429.03
2019-06-27T06:31:38.847Z,102438.00
2019-06-27T06:34:09.094Z,102427.41
2019-06-27T06:36:39.208Z,102430.33
2019-06-27T06:39:09.673Z,102434.36
2019-06-27T06:41:40.028Z,102432.56
2019-06-27T06:44:12.180Z,102433.96
2019-06-27T06:46:43.409Z,102442.92
2019-06-27T06:49:13.688Z,102443.66
2019-06-27T06:51:43.835Z,102445.28
2019-06-27T06:54:14.164Z,102444.51
2019-06-27T06:56:44.280Z,102456.31
2019-06-27T06:59:14.604Z,102458.45
2019-06-27T07:01:45.933Z,102460.63
2019-06-27T07:04:16.360Z,102459.14
2019-06-27T07:06:46.644Z,102463.49
2019-06-27T07:09:16.964Z,102458.56
2019-06-27T07:11:47.091Z,102469.77
2019-06-27T07:14:17.324Z,102464.02
2019-06-27T07:16:47.519Z,102459.23
2019-06-27T07:19:17.745Z,102463.66
2019-06-27T07:21:47.887Z,102453.48
2019-06-27T07:24:17.996Z,102456.45
2019-06-27T07:26:48.109Z,102452.15
2019-06-27T07:29:18.250Z,102456.56
2019-06-27T07:31:48.407Z,102453.99
2019-06-27T07:34:18.537Z,102462.03
2019-06-27T07:36:48.673Z,102458.58
2019-06-27T07:39:18.789Z,102467.14
2019-06-27T07:41:49.034Z,102459.12
2019-06-27T07:44:20.363Z,102460.41
2019-06-27T07:46:50.810Z,102457.80
2019-06-27T07:49:20.977Z,102456.76
2019-06-27T07:51:51.209Z,102456.79
2019-06-27T07:54:21.353Z,102454.34
2019-06-27T07:56:51.525Z,102456.00
2019-06-27T07:59:21.675Z,102454.15
2019-06-27T08:01:51.827Z,102458.92
2019-06-27T08:04:22.266Z,102454.95
2019-06-27T08:06:52.910Z,102451.88
2019-06-27T08:09:23.080Z,102456.47
2019-06-27T08:11:55.017Z,102449.06
2019-06-27T08:14:25.140Z,102451.31
2019-06-27T08:16:56.896Z,102456.30
2019-06-27T08:19:27.005Z,102452.72
2019-06-27T08:21:57.182Z,102444.59
2019-06-27T08:24:27.322Z,102438.77
2019-06-27T08:26:57.464Z,102448.02
2019-06-27T08:29:27.616Z,102440.45
2019-06-27T08:31:57.718Z,102434.36
2019-06-27T08:34:28.236Z,102432.30
2019-06-27T08:36:58.338Z,102434.77
2019-06-27T08:39:28.478Z,102435.64
2019-06-27T08:41:58.782Z,102449.03
2019-06-27T08:44:29.946Z,102442.94
2019-06-27T08:47:00.205Z,102437.14
2019-06-27T08:49:31.156Z,102438.09
2019-06-27T08:52:01.318Z,102445.11
2019-06-27T08:54:32.207Z,102439.83
2019-06-27T08:57:04.277Z,102447.97
2019-06-27T08:59:35.513Z,102437.16
2019-06-27T09:02:09.129Z,102437.89
2019-06-27T09:04:35.446Z,102436.81
2019-06-27T09:07:04.817Z,102434.72
2019-06-27T09:09:33.923Z,102440.19
2019-06-27T09:12:04.441Z,102446.43
2019-06-27T09:14:33.741Z,102444.14
2019-06-27T09:17:02.876Z,102440.13
2019-06-27T09:19:32.003Z,102442.57
2019-06-27T09:22:02.746Z,102437.20
2019-06-27T09:24:31.958Z,102440.02
2019-06-27T09:27:02.303Z,102441.39
2019-06-27T09:29:31.393Z,102441.75
2019-06-27T09:32:00.545Z,102443.63
2019-06-27T09:34:30.710Z,102443.55
2019-06-27T09:37:02.552Z,102441.52
2019-06-27T09:39:31.827Z,102442.26
2019-06-27T09:42:02.503Z,102446.20
2019-06-27T09:44:31.626Z,102441.02
2019-06-27T09:47:03.010Z,102433.55
2019-06-27T09:49:32.135Z,102436.34
2019-06-27T09:52:02.319Z,102435.30
2019-06-27T09:54:31.388Z,102438.05
2019-06-27T09:57:02.379Z,102429.40
2019-06-27T09:59:31.518Z,102430.69
2019-06-27T10:02:00.652Z,102429.95
2019-06-27T10:04:29.733Z,102442.64
2019-06-27T10:06:59.068Z,102433.94
2019-06-27T10:09:28.243Z,102437.00
2019-06-27T10:11:58.551Z,102426.55
2019-06-27T10:14:27.638Z,102431.72
2019-06-27T10:16:58.742Z,102438.44
2019-06-27T10:19:28.485Z,102440.44
2019-06-27T10:21:57.617Z,102430.00
2019-06-27T10:24:26.708Z,102437.95
2019-06-27T10:26:55.842Z,102435.42
2019-06-27T10:29:24.992Z,102431.42
2019-06-27T10:31:54.204Z,102429.69
2019-06-27T10:34:24.350Z,102430.72
2019-06-27T10:36:54.576Z,102430.21
2019-06-27T10:39:24.747Z,102436.16
2019-06-27T10:41:54.931Z,102445.30
2019-06-27T10:44:25.051Z,102434.19
2019-06-27T10:46:55.331Z,102428.36
2019-06-27T10:49:27.293Z,102423.41
2019-06-27T10:51:57.578Z,102432.47
2019-06-27T10:54:27.861Z,102429.84
2019-06-27T10:56:58.198Z,102420.70
2019-06-27T10:59:28.808Z,102422.25
2019-06-27T11:02:00.760Z,102425.77
2019-06-27T11:04:32.462Z,102432.47
2019-06-27T11:07:04.458Z,102428.23
2019-06-27T11:09:34.657Z,102420.15
2019-06-27T11:12:06.272Z,102421.62
2019-06-27T11:14:37.260Z,102429.16
2019-06-27T11:17:07.432Z,102423.80
2019-06-27T11:19:51.522Z,102423.16
2019-06-27T11:22:09.360Z,102424.77
2019-06-27T11:24:39.461Z,102416.09
2019-06-27T11:27:09.687Z,102419.26
2019-06-27T11:29:40.903Z,102417.08
2019-06-27T11:32:11.275Z,102409.16
2019-06-27T11:34:41.857Z,102414.09
2019-06-27T11:37:12.171Z,102427.28
2019-06-27T11:39:42.651Z,102420.57
2019-06-27T11:42:12.804Z,102414.94
2019-06-27T11:44:42.924Z,102410.23
2019-06-27T11:47:13.058Z,102415.92
2019-06-27T11:49:43.250Z,102416.83
2019-06-27T11:52:12.421Z,102417.33
2019-06-27T11:54:41.902Z,102408.16
2019-06-27T11:57:11.047Z,102406.07
2019-06-27T11:59:40.158Z,102417.28
2019-06-27T12:02:09.285Z,102415.67
2019-06-27T12:04:38.374Z,102410.64
2019-06-27T12:07:07.509Z,102399.13
2019-06-27T12:09:36.614Z,102402.42
2019-06-27T12:12:07.015Z,102398.28
2019-06-27T12:14:36.236Z,102392.72
2019-06-27T12:17:05.381Z,102398.94
2019-06-27T12:19:34.517Z,102410.01
2019-06-27T12:22:04.307Z,102396.42
2019-06-27T12:24:33.431Z,102400.34
2019-06-27T12:27:03.788Z,102403.06
2019-06-27T12:29:33.964Z,102403.98
2019-06-27T12:32:05.577Z,102395.83
2019-06-27T12:34:37.333Z,102396.75
2019-06-27T12:37:06.537Z,102394.77
2019-06-27T12:39:35.670Z,102390.09
2019-06-27T12:42:04.802Z,102394.24
2019-06-27T12:44:34.207Z,102386.55
2019-06-27T12:47:04.297Z,102381.53
2019-06-27T12:49:56.515Z,102386.44
2019-06-27T12:52:06.347Z,102373.17
2019-06-27T12:54:37.856Z,102370.88
2019-06-27T12:57:09.436Z,102374.09
2019-06-27T12:59:39.615Z,102371.20
2019-06-27T13:02:11.655Z,102369.51
2019-06-27T13:04:41.963Z,102367.55
2019-06-27T13:07:11.144Z,102365.98
2019-06-27T13:09:40.317Z,102352.72
2019-06-27T13:12:10.344Z,102362.92
2019-06-27T13:14:41.695Z,102365.80
2019-06-27T13:17:11.905Z,102366.54
2019-06-27T13:19:43.122Z,102356.49
2019-06-27T13:22:13.294Z,102355.44
2019-06-27T13:24:43.416Z,102363.16
2019-06-27T13:27:13.591Z,102362.88
2019-06-27T13:29:43.729Z,102346.50
2019-06-27T13:32:15.428Z,102351.86
2019-06-27T13:34:45.839Z,102341.97
2019-06-27T13:37:16.004Z,102349.95
2019-06-27T13:39:46.860Z,102346.14
2019-06-27T13:42:17.002Z,102350.45
2019-06-27T13:44:47.147Z,102353.84
2019-06-27T13:47:20.179Z,102332.92
2019-06-27T13:49:49.163Z,102343.77
2019-06-27T13:52:19.338Z,102339.06
2019-06-27T13:54:49.500Z,102343.39
2019-06-27T13:57:19.624Z,102332.05
2019-06-27T13:59:49.842Z,102324.28
2019-06-27T14:02:20.132Z,102333.88
2019-06-27T14:04:56.907Z,102328.05
2019-06-27T14:07:23.623Z,102338.71
2019-06-27T14:09:57.069Z,102332.11
2019-06-27T14:12:28.246Z,102323.67
2019-06-27T14:15:00.200Z,102326.06
2019-06-27T14:17:31.740Z,102329.58
2019-06-27T14:20:03.659Z,102330.58
2019-06-27T14:22:34.252Z,102327.00
2019-06-27T14:25:04.584Z,102335.73
2019-06-27T14:27:34.834Z,102334.41
2019-06-27T14:30:05.810Z,102333.30
2019-06-27T14:32:35.993Z,102324.00
2019-06-27T14:35:15.217Z,102326.52
2019-06-27T14:37:36.902Z,102330.45
2019-06-27T14:40:07.203Z,102324.67
2019-06-27T14:42:38.519Z,102326.97
2019-06-27T14:45:08.761Z,102320.39
2019-06-27T14:47:38.988Z,102331.91
2019-06-27T14:50:09.422Z,102314.69
2019-06-27T14:52:39.692Z,102316.76
2019-06-27T14:55:09.843Z,102325.09
2019-06-27T14:57:40.407Z,102331.05
2019-06-27T15:00:11.307Z,102330.05
2019-06-27T15:02:40.643Z,102328.16
2019-06-27T15:05:11.367Z,102330.95
2019-06-27T15:07:41.643Z,102326.52
2019-06-27T15:10:12.073Z,102330.09
2019-06-27T15:12:55.817Z,102324.25
2019-06-27T15:15:14.086Z,102321.29
2019-06-27T15:17:44.341Z,102326.70
2019-06-27T15:20:14.613Z,102324.61
2019-06-27T15:22:47.665Z,102323.17
2019-06-27T15:25:18.179Z,102320.77
2019-06-27T15:27:48.379Z,102320.59
2019-06-27T15:30:18.750Z,102315.43
2019-06-27T15:32:50.084Z,102322.80
2019-06-27T15:35:20.314Z,102311.13
2019-06-27T15:37:50.463Z,102316.02
2019-06-27T15:40:21.311Z,102315.91
2019-06-27T15:42:51.428Z,102321.12
2019-06-27T15:45:21.724Z,102311.37
2019-06-27T15:47:51.843Z,102316.91
2019-06-27T15:50:22.131Z,102312.05
2019-06-27T15:52:52.268Z,102314.69
2019-06-27T15:55:22.823Z,102314.24
2019-06-27T15:57:53.090Z,102316.23
2019-06-27T16:00:23.491Z,102311.52
2019-06-27T16:02:53.752Z,102309.70
2019-06-27T16:05:24.293Z,102305.84
2019-06-27T16:07:54.533Z,102308.06
2019-06-27T16:10:23.729Z,102305.33
2019-06-27T16:12:52.844Z,102302.87
2019-06-27T16:15:22.102Z,102298.40
2019-06-27T16:17:51.319Z,102294.20
2019-06-27T16:20:20.542Z,102300.75
2019-06-27T16:22:49.768Z,102293.70
2019-06-27T16:25:19.081Z,102288.89
2019-06-27T16:27:48.417Z,102288.25
2019-06-27T16:30:17.721Z,102283.17
2019-06-27T16:32:47.071Z,102277.73
2019-06-27T16:35:17.127Z,102287.68
2019-06-27T16:37:47.342Z,102285.41
2019-06-27T16:40:17.516Z,102283.92
2019-06-27T16:42:47.769Z,102276.02
2019-06-27T16:45:18.995Z,102282.22
2019-06-27T16:47:52.742Z,102284.52
2019-06-27T16:50:23.917Z,102278.73
2019-06-27T16:52:54.209Z,102288.59
2019-06-27T16:55:24.311Z,102290.56
2019-06-27T16:57:54.448Z,102284.13
2019-06-27T17:00:25.713Z,102294.52
2019-06-27T17:02:55.890Z,102296.62
2019-06-27T17:05:27.020Z,102284.38
2019-06-27T17:07:57.177Z,102285.33
2019-06-27T17:10:27.423Z,102293.87
2019-06-27T17:12:57.575Z,102292.95
2019-06-27T17:15:29.171Z,102293.25
2019-06-27T17:17:59.315Z,102291.20
2019-06-27T17:20:29.788Z,102288.59
2019-06-27T17:22:59.957Z,102291.78
2019-06-27T17:25:32.559Z,102287.45
2019-06-27T17:28:03.026Z,102298.17
2019-06-27T17:30:33.172Z,102302.08
2019-06-27T17:33:03.438Z,102291.20
2019-06-27T17:35:33.626Z,102295.84
2019-06-27T17:38:03.801Z,102293.13
2019-06-27T17:40:33.962Z,102292.60
2019-06-27T17:43:05.592Z,102295.59
2019-06-27T17:45:35.736Z,102296.48
2019-06-27T17:48:09.690Z,102292.50
2019-06-27T17:50:39.818Z,102299.44
2019-06-27T17:53:09.935Z,102294.17
2019-06-27T17:55:40.150Z,102299.80
2019-06-27T17:58:10.256Z,102303.28
2019-06-27T18:00:40.483Z,102308.84
2019-06-27T18:03:10.657Z,102317.02
2019-06-27T18:05:40.759Z,102314.83
2019-06-27T18:08:11.020Z,102321.11
2019-06-27T18:10:41.147Z,102311.59
2019-06-27T18:13:11.382Z,102317.33
2019-06-27T18:15:42.860Z,102306.41
2019-06-27T18:18:13.323Z,102310.79
2019-06-27T18:20:43.831Z,102311.73
2019-06-27T18:23:14.256Z,102311.37
2019-06-27T18:25:46.001Z,102311.42
2019-06-27T18:28:16.288Z,102322.27
2019-06-27T18:30:46.444Z,102311.06
2019-06-27T18:33:16.898Z,102312.12
2019-06-27T18:35:47.148Z,102315.53
2019-06-27T18:38:17.574Z,102312.70
2019-06-27T18:40:48.203Z,102312.45
2019-06-27T18:43:18.497Z,102313.98
2019-06-27T18:45:49.205Z,102311.88
2019-06-27T18:48:19.682Z,102307.50
2019-06-27T18:50:49.827Z,102306.39
2019-06-27T18:53:20.172Z,102309.52
2019-06-27T18:55:50.523Z,102307.84
2019-06-27T18:58:20.942Z,102310.44
2019-06-27T19:00:51.221Z,102301.81
2019-06-27T19:03:21.667Z,102303.56
2019-06-27T19:05:51.921Z,102297.77
2019-06-27T19:08:22.270Z,102307.43
2019-06-27T19:10:52.761Z,102299.14
2019-06-27T19:13:23.511Z,102307.52
2019-06-27T19:15:53.854Z,102304.91
2019-06-27T19:18:41.603Z,102304.56
2019-06-27T19:21:15.450Z,102302.23
2019-06-27T19:24:02.632Z,102301.08
2019-06-27T19:26:34.514Z,102301.87
2019-06-27T19:29:05.343Z,102304.78
2019-06-27T19:31:35.833Z,102303.12
2019-06-27T19:34:06.445Z,102298.70
2019-06-27T19:36:38.593Z,102298.61
2019-06-27T19:39:08.936Z,102305.67
2019-06-27T19:41:40.518Z,102312.38
2019-06-27T19:44:10.894Z,102306.04
2019-06-27T19:46:41.081Z,102295.93
2019-06-27T19:49:11.323Z,102304.34
2019-06-27T19:51:41.661Z,102299.22
2019-06-27T19:54:13.570Z,102294.83
2019-06-27T19:56:43.879Z,102298.30
2019-06-27T19:59:14.086Z,102295.78
2019-06-27T20:01:44.400Z,102304.23
2019-06-27T20:04:17.154Z,102302.88
2019-06-27T20:06:47.398Z,102308.09
2019-06-27T20:09:18.830Z,102308.90
2019-06-27T20:11:48.992Z,102313.23
2019-06-27T20:14:21.054Z,102313.13
2019-06-27T20:16:51.288Z,102312.15
2019-06-27T20:19:21.712Z,102319.55
2019-06-27T20:21:52.240Z,102311.39
2019-06-27T20:24:22.746Z,102306.40
2019-06-27T20:26:53.487Z,102304.73
2019-06-27T20:29:23.743Z,102310.19
2019-06-27T20:31:56.985Z,102305.13
2019-06-27T20:34:27.185Z,102308.34
2019-06-27T20:36:58.090Z,102307.30
2019-06-27T20:39:28.880Z,102308.47
2019-06-27T20:41:59.278Z,102315.63
2019-06-27T20:44:29.533Z,102310.13
2019-06-27T20:46:59.728Z,102309.23
2019-06-27T20:49:31.754Z,102314.87
2019-06-27T20:52:02.661Z,102308.09
2019-06-27T20:54:34.626Z,102309.66
2019-06-27T20:57:07.798Z,102310.22
2019-06-27T20:59:38.130Z,102312.81
2019-06-27T21:02:08.403Z,102314.03
2019-06-27T21:04:38.649Z,102314.66
2019-06-27T21:07:10.150Z,102317.20
2019-06-27T21:09:40.577Z,102319.69
2019-06-27T21:12:10.801Z,102309.41
2019-06-27T21:14:40.955Z,102309.59
2019-06-27T21:17:11.306Z,102316.02
2019-06-27T21:19:41.571Z,102321.41
2019-06-27T21:22:11.803Z,102319.80
2019-06-27T21:24:42.032Z,102320.30
2019-06-27T21:27:12.360Z,102320.25
2019-06-27T21:29:42.506Z,102321.15
2019-06-27T21:32:12.641Z,102319.55
2019-06-27T21:34:42.806Z,102319.89
2019-06-27T21:37:12.945Z,102317.36
2019-06-27T21:39:43.123Z,102316.41
2019-06-27T21:42:13.339Z,102319.41
2019-06-27T21:44:43.486Z,102308.47
2019-06-27T21:47:13.606Z,102315.55
2019-06-27T21:49:43.763Z,102312.63
2019-06-27T21:52:13.909Z,102311.77
2019-06-27T21:54:44.037Z,102310.17
2019-06-27T21:57:15.382Z,102316.02
2019-06-27T21:59:45.536Z,102313.13
2019-06-27T22:02:16.803Z,102310.22
2019-06-27T22:04:47.141Z,102310.13
2019-06-27T22:07:17.257Z,102306.68
2019-06-27T22:09:48.580Z,102308.85
2019-06-27T22:12:18.747Z,102305.69
2019-06-27T22:14:48.943Z,102299.31
2019-06-27T22:17:19.347Z,102296.64
2019-06-27T22:19:49.551Z,102295.34
2019-06-27T22:22:20.811Z,102291.55
2019-06-27T22:24:50.982Z,102285.67
2019-06-27T22:27:21.313Z,102288.17
2019-06-27T22:29:51.551Z,102287.61
2019-06-27T22:32:21.748Z,102283.70
2019-06-27T22:34:52.051Z,102278.33
2019-06-27T22:37:23.955Z,102279.92
2019-06-27T22:40:12.968Z,102277.98
2019-06-27T22:43:04.261Z,102278.98
2019-06-27T22:45:51.121Z,102274.03
2019-06-27T22:48:21.878Z,102272.89
2019-06-27T22:51:11.084Z,102271.17
2019-06-27T22:53:48.424Z,102276.53
2019-06-27T22:56:18.535Z,102275.31
2019-06-27T22:58:48.731Z,102270.16
2019-06-27T23:01:18.863Z,102274.31
2019-06-27T23:03:49.008Z,102277.22
2019-06-27T23:06:20.218Z,102271.41
2019-06-27T23:08:50.369Z,102266.37
2019-06-27T23:11:20.497Z,102266.96
2019-06-27T23:13:50.627Z,102261.66
2019-06-27T23:16:20.746Z,102259.95
2019-06-27T23:18:50.859Z,102263.29
2019-06-27T23:21:21.016Z,102259.87
2019-06-27T23:23:51.331Z,102256.20
2019-06-27T23:26:21.576Z,102256.28
2019-06-27T23:28:51.763Z,102252.17
2019-06-27T23:31:22.155Z,102254.22
2019-06-27T23:33:52.375Z,102255.81
2019-06-27T23:36:23.077Z,102262.25
2019-06-27T23:38:53.352Z,102261.38
2019-06-27T23:41:23.681Z,102259.70
2019-06-27T23:43:54.898Z,102257.54
2019-06-27T23:46:41.834Z,102254.06
2019-06-27T23:49:12.257Z,102254.72
2019-06-27T23:51:42.525Z,102247.19
2019-06-27T23:54:13.635Z,102250.45
2019-06-27T23:56:43.802Z,102253.36
2019-06-27T23:59:13.940Z,102250.20
